Time;durP1;ratioP1;P1;durP2;ratioP2;P2;SDS_P1;SDS_P2;PMS_P1;PMS_P2;Temp;Humidity;BMP_temperature;BMP_pressure;BME280_temperature;BME280_humidity;BME280_pressure;Samples;Min_cycle;Max_cycle;Signal;HPM_P1;HPM_P2
2022/05/20 00:00:36;;;;;;;18.85;2.95;;;;;;;;;;4934488;29;20127;-70
2022/05/20 00:03:03;;;;;;;15.80;3.08;;;;;;;;;;4934723;29;20031;-70
2022/05/20 00:05:29;;;;;;;19.42;3.72;;;;;;;;;;4916157;29;20036;-71
2022/05/20 00:07:56;;;;;;;15.93;3.42;;;;;;;;;;4916163;29;20483;-71
2022/05/20 00:10:22;;;;;;;14.40;2.67;;;;;;;;;;4915533;29;20511;-70
2022/05/20 00:12:48;;;;;;;13.18;2.72;;;;;;;;;;4915472;29;20044;-70
2022/05/20 00:15:16;;;;;;;13.07;2.88;;;;;;;;;;4915367;29;20087;-71
2022/05/20 00:17:43;;;;;;;15.90;3.15;;;;;;;;;;4915362;29;20040;-70
2022/05/20 00:20:10;;;;;;;19.92;3.40;;;;;;;;;;4915207;29;20100;-70
2022/05/20 00:22:36;;;;;;;21.58;3.40;;;;;;;;;;4915450;29;20083;-70
2022/05/20 00:27:47;;;;;;;16.15;2.70;;;;;;;;;;4915374;29;20047;-70
2022/05/20 00:30:14;;;;;;;14.45;3.00;;;;;;;;;;4915244;29;20080;-70
2022/05/20 00:32:40;;;;;;;13.43;3.33;;;;;;;;;;4915159;29;20107;-70
2022/05/20 00:35:07;;;;;;;16.60;3.67;;;;;;;;;;4914730;29;20066;-70
2022/05/20 00:37:33;;;;;;;12.27;3.22;;;;;;;;;;4914725;29;20024;-69
2022/05/20 00:39:59;;;;;;;13.73;3.42;;;;;;;;;;4918640;29;20036;-70
2022/05/20 00:42:26;;;;;;;16.67;3.20;;;;;;;;;;4932531;29;20509;-70
2022/05/20 00:44:52;;;;;;;15.30;3.30;;;;;;;;;;4916192;29;20028;-70
2022/05/20 00:47:18;;;;;;;20.85;4.05;;;;;;;;;;4933326;29;20036;-70
2022/05/20 00:49:46;;;;;;;14.45;3.65;;;;;;;;;;4933765;29;20495;-70
2022/05/20 00:52:14;;;;;;;17.90;3.40;;;;;;;;;;4932758;29;20032;-70
2022/05/20 00:54:43;;;;;;;16.42;2.83;;;;;;;;;;4920334;29;20031;-71
2022/05/20 00:57:28;;;;;;;11.70;3.45;;;;;;;;;;4915344;29;20036;-71
2022/05/20 00:59:58;;;;;;;27.08;4.32;;;;;;;;;;4914809;29;20020;-71
2022/05/20 01:02:25;;;;;;;17.58;3.40;;;;;;;;;;4914610;29;20089;-71
2022/05/20 01:04:56;;;;;;;15.85;3.80;;;;;;;;;;4914421;29;20040;-70
2022/05/20 01:07:22;;;;;;;20.58;4.05;;;;;;;;;;4914615;29;20040;-70
2022/05/20 01:09:48;;;;;;;20.95;4.18;;;;;;;;;;4914552;29;20028;-71
2022/05/20 01:12:14;;;;;;;19.85;3.88;;;;;;;;;;4914739;29;20103;-71
2022/05/20 01:14:40;;;;;;;15.00;3.70;;;;;;;;;;4915313;29;20493;-71
2022/05/20 01:17:07;;;;;;;20.55;4.93;;;;;;;;;;4914964;29;20032;-70
2022/05/20 01:19:41;;;;;;;22.65;4.65;;;;;;;;;;4914740;29;20052;-71
2022/05/20 01:22:07;;;;;;;;;;;;;;;;;;4933785;29;20043;-71
2022/05/20 01:24:33;;;;;;;18.77;4.13;;;;;;;;;;4933701;29;19907;-71
2022/05/20 01:27:00;;;;;;;18.65;4.00;;;;;;;;;;4933734;29;20052;-71
2022/05/20 01:29:26;;;;;;;19.75;3.47;;;;;;;;;;4933513;29;20110;-70
2022/05/20 01:31:52;;;;;;;21.17;3.80;;;;;;;;;;4929194;29;20036;-71
2022/05/20 01:34:20;;;;;;;20.33;4.28;;;;;;;;;;4914186;29;20076;-70
2022/05/20 01:36:46;;;;;;;17.27;3.67;;;;;;;;;;4914080;29;20028;-70
2022/05/20 01:39:12;;;;;;;21.60;3.78;;;;;;;;;;4914536;29;20032;-71
2022/05/20 01:42:01;;;;;;;20.98;3.95;;;;;;;;;;4924446;29;20024;-71
2022/05/20 01:44:48;;;;;;;20.10;3.40;;;;;;;;;;4923366;29;20032;-71
2022/05/20 01:47:17;;;;;;;21.98;4.55;;;;;;;;;;4933192;29;20051;-70
2022/05/20 01:49:50;;;;;;;21.00;4.25;;;;;;;;;;4932659;29;20027;-71
2022/05/20 01:52:26;;;;;;;20.63;4.25;;;;;;;;;;4933132;29;20036;-72
2022/05/20 01:55:04;;;;;;;23.15;4.32;;;;;;;;;;4933211;29;20031;-71
2022/05/20 01:58:00;;;;;;;21.02;3.75;;;;;;;;;;4933133;29;20065;-71
2022/05/20 02:00:27;;;;;;;21.45;3.80;;;;;;;;;;4919336;29;20044;-69
2022/05/20 02:02:59;;;;;;;18.20;4.72;;;;;;;;;;4936730;29;20043;-71
2022/05/20 02:05:33;;;;;;;17.63;3.92;;;;;;;;;;4936083;29;20051;-71
2022/05/20 02:08:03;;;;;;;25.50;4.03;;;;;;;;;;4917533;29;20039;-70
2022/05/20 02:10:32;;;;;;;20.02;3.50;;;;;;;;;;4917568;29;20127;-71
2022/05/20 02:13:01;;;;;;;16.83;4.40;;;;;;;;;;4917313;29;20036;-70
2022/05/20 02:15:33;;;;;;;29.35;7.35;;;;;;;;;;4917620;29;20074;-71
2022/05/20 02:18:00;;;;;;;18.20;4.75;;;;;;;;;;4917341;29;20032;-71
2022/05/20 02:20:38;;;;;;;19.33;3.75;;;;;;;;;;4917086;29;20055;-71
2022/05/20 02:23:07;;;;;;;17.85;4.25;;;;;;;;;;4926020;29;20107;-71
2022/05/20 02:25:36;;;;;;;16.35;4.68;;;;;;;;;;4917508;29;20076;-71
2022/05/20 02:28:34;;;;;;;25.10;5.53;;;;;;;;;;4917643;29;20111;-71
2022/05/20 02:31:02;;;;;;;17.45;4.43;;;;;;;;;;4895762;29;20036;-71
2022/05/20 02:33:29;;;;;;;18.50;4.30;;;;;;;;;;4917407;29;20039;-71
2022/05/20 02:36:21;;;;;;;21.08;4.55;;;;;;;;;;4917206;29;20100;-72
2022/05/20 02:38:47;;;;;;;17.75;4.30;;;;;;;;;;4915244;29;20048;-71
2022/05/20 02:41:13;;;;;;;21.23;4.03;;;;;;;;;;4924687;29;20028;-71
2022/05/20 02:43:39;;;;;;;15.20;4.30;;;;;;;;;;4936257;29;20055;-71
2022/05/20 02:46:05;;;;;;;18.77;4.70;;;;;;;;;;4936265;29;20019;-71
2022/05/20 02:48:31;;;;;;;14.45;4.47;;;;;;;;;;4936114;29;20028;-71
2022/05/20 02:50:58;;;;;;;13.10;3.85;;;;;;;;;;4936283;29;20103;-71
2022/05/20 02:53:24;;;;;;;12.93;4.18;;;;;;;;;;4936140;29;20098;-71
2022/05/20 02:55:50;;;;;;;23.23;4.85;;;;;;;;;;4936071;29;20027;-73
2022/05/20 03:04:11;;;;;;;19.50;5.00;;;;;;;;;;4916784;29;20406;-71
2022/05/20 03:06:38;;;;;;;20.10;5.13;;;;;;;;;;4916237;29;20036;-71
2022/05/20 03:09:05;;;;;;;20.25;4.80;;;;;;;;;;4916456;29;20028;-71
2022/05/20 03:11:32;;;;;;;15.82;3.83;;;;;;;;;;4916202;29;20095;-72
2022/05/20 03:13:58;;;;;;;16.35;4.18;;;;;;;;;;4916949;29;20024;-71
2022/05/20 03:16:24;;;;;;;15.98;4.32;;;;;;;;;;4916439;29;20032;-71
2022/05/20 03:18:50;;;;;;;15.23;4.70;;;;;;;;;;4916194;29;20030;-71
2022/05/20 03:21:16;;;;;;;18.23;4.55;;;;;;;;;;4916280;29;20032;-71
2022/05/20 03:23:42;;;;;;;14.77;5.28;;;;;;;;;;4916650;29;20119;-71
2022/05/20 03:26:08;;;;;;;19.33;5.10;;;;;;;;;;4916591;29;20039;-71
2022/05/20 03:28:35;;;;;;;17.88;5.03;;;;;;;;;;4916454;29;20051;-71
2022/05/20 03:31:07;;;;;;;23.83;5.82;;;;;;;;;;4916812;29;20409;-70
2022/05/20 03:33:37;;;;;;;16.70;4.90;;;;;;;;;;4915884;29;20441;-70
2022/05/20 03:36:04;;;;;;;20.17;4.63;;;;;;;;;;4915660;29;20024;-70
2022/05/20 03:38:30;;;;;;;20.50;5.22;;;;;;;;;;4915724;29;20036;-70
2022/05/20 03:40:56;;;;;;;19.05;4.90;;;;;;;;;;4915903;29;20414;-70
2022/05/20 03:43:23;;;;;;;21.35;5.18;;;;;;;;;;4916444;29;20060;-70
2022/05/20 03:45:49;;;;;;;16.13;4.45;;;;;;;;;;4916329;29;20493;-70
2022/05/20 03:48:15;;;;;;;18.15;5.03;;;;;;;;;;4916492;29;20032;-69
2022/05/20 03:50:41;;;;;;;13.85;4.63;;;;;;;;;;4916249;29;20031;-70
2022/05/20 03:53:08;;;;;;;21.80;4.75;;;;;;;;;;4915935;29;20032;-71
2022/05/20 03:55:34;;;;;;;23.08;5.00;;;;;;;;;;4916060;29;20031;-71
2022/05/20 03:58:00;;;;;;;18.27;4.65;;;;;;;;;;4915879;29;20035;-71
2022/05/20 04:00:26;;;;;;;17.40;4.60;;;;;;;;;;4924261;29;20016;-70
2022/05/20 04:02:52;;;;;;;16.20;4.85;;;;;;;;;;4934259;29;20032;-70
2022/05/20 04:05:19;;;;;;;17.75;5.25;;;;;;;;;;4933695;29;20341;-70
2022/05/20 04:07:45;;;;;;;15.38;4.63;;;;;;;;;;4934125;29;20027;-70
2022/05/20 04:10:11;;;;;;;18.15;5.18;;;;;;;;;;4934316;29;20038;-71
2022/05/20 04:12:40;;;;;;;19.63;5.97;;;;;;;;;;4934112;29;20076;-70
2022/05/20 04:15:07;;;;;;;19.45;5.75;;;;;;;;;;4933995;29;20035;-70
2022/05/20 04:17:34;;;;;;;16.77;5.13;;;;;;;;;;4934172;29;20028;-70
2022/05/20 04:20:00;;;;;;;22.13;6.35;;;;;;;;;;4934227;29;20052;-70
2022/05/20 04:22:30;;;;;;;20.58;6.13;;;;;;;;;;4932800;29;20051;-70
2022/05/20 04:24:57;;;;;;;21.30;5.20;;;;;;;;;;4934519;29;20020;-70
2022/05/20 04:27:23;;;;;;;17.13;5.28;;;;;;;;;;4933741;29;20035;-70
2022/05/20 04:29:50;;;;;;;17.40;5.18;;;;;;;;;;4933946;29;20477;-70
2022/05/20 04:32:16;;;;;;;15.15;5.00;;;;;;;;;;4933762;29;20071;-70
2022/05/20 04:34:42;;;;;;;12.13;4.07;;;;;;;;;;4933858;29;20031;-70
2022/05/20 04:37:08;;;;;;;14.10;4.38;;;;;;;;;;4933821;29;20023;-70
2022/05/20 04:39:35;;;;;;;19.70;5.40;;;;;;;;;;4924100;29;20482;-70
2022/05/20 04:47:32;;;;;;;15.10;4.78;;;;;;;;;;4914628;29;20180;-70
2022/05/20 04:49:58;;;;;;;16.35;5.20;;;;;;;;;;4914889;29;20067;-70
2022/05/20 04:52:24;;;;;;;15.38;4.75;;;;;;;;;;4914649;29;20043;-71
2022/05/20 04:54:51;;;;;;;17.17;5.63;;;;;;;;;;4914723;29;20503;-70
2022/05/20 04:57:18;;;;;;;14.30;5.43;;;;;;;;;;4915288;29;20116;-70
2022/05/20 04:59:45;;;;;;;20.48;5.65;;;;;;;;;;4914546;29;20035;-70
2022/05/20 05:02:13;;;;;;;20.02;5.97;;;;;;;;;;4914654;29;20107;-70
2022/05/20 05:04:39;;;;;;;16.17;6.03;;;;;;;;;;4914763;29;20137;-70
2022/05/20 05:07:09;;;;;;;20.45;7.22;;;;;;;;;;4914224;29;20394;-69
2022/05/20 05:09:35;;;;;;;19.80;5.68;;;;;;;;;;4914604;29;20028;-70
2022/05/20 05:12:03;;;;;;;20.10;5.78;;;;;;;;;;4914332;29;20079;-70
2022/05/20 05:14:29;;;;;;;21.92;5.45;;;;;;;;;;4915030;29;20048;-70
2022/05/20 05:16:55;;;;;;;15.88;4.72;;;;;;;;;;4914703;29;20056;-70
2022/05/20 05:19:21;;;;;;;18.23;5.30;;;;;;;;;;4914568;29;20092;-71
2022/05/20 05:21:47;;;;;;;18.85;4.97;;;;;;;;;;4918777;29;20393;-70
2022/05/20 05:24:13;;;;;;;21.40;5.45;;;;;;;;;;4933651;29;20059;-70
2022/05/20 05:26:42;;;;;;;20.95;5.30;;;;;;;;;;4933455;29;20028;-70
2022/05/20 05:29:08;;;;;;;16.38;5.40;;;;;;;;;;4933776;29;20059;-70
2022/05/20 05:31:34;;;;;;;17.17;4.80;;;;;;;;;;4932703;29;20046;-70
2022/05/20 05:34:00;;;;;;;18.92;4.90;;;;;;;;;;4935133;29;20020;-70
2022/05/20 05:36:27;;;;;;;14.85;4.88;;;;;;;;;;4936800;29;20071;-70
2022/05/20 05:38:53;;;;;;;18.35;5.40;;;;;;;;;;4936911;29;20043;-71
2022/05/20 05:41:20;;;;;;;15.70;5.65;;;;;;;;;;4936717;29;20027;-70
2022/05/20 05:43:47;;;;;;;18.08;5.38;;;;;;;;;;4936798;29;20024;-70
2022/05/20 05:46:13;;;;;;;17.83;5.28;;;;;;;;;;4936874;29;20032;-71
2022/05/20 05:48:39;;;;;;;32.28;18.00;;;;;;;;;;4936274;29;20020;-69
2022/05/20 05:51:06;;;;;;;13.68;5.20;;;;;;;;;;4936476;29;20035;-69
2022/05/20 05:53:32;;;;;;;15.32;5.65;;;;;;;;;;4936431;29;20039;-71
2022/05/20 05:55:59;;;;;;;17.08;5.10;;;;;;;;;;4936690;29;20031;-71
2022/05/20 05:58:26;;;;;;;18.55;4.53;;;;;;;;;;4936952;29;20032;-70
2022/05/20 06:00:52;;;;;;;20.15;5.07;;;;;;;;;;4919976;29;20047;-71
2022/05/20 06:03:18;;;;;;;19.00;4.70;;;;;;;;;;4936530;29;20027;-71
2022/05/20 06:05:45;;;;;;;16.20;4.65;;;;;;;;;;4936069;29;20552;-70
2022/05/20 06:08:11;;;;;;;15.15;4.53;;;;;;;;;;4919478;29;20032;-71
2022/05/20 06:10:37;;;;;;;25.05;6.35;;;;;;;;;;4936440;29;20066;-71
2022/05/20 06:13:04;;;;;;;16.20;4.93;;;;;;;;;;4936413;29;20049;-71
2022/05/20 06:15:30;;;;;;;15.15;4.43;;;;;;;;;;4936105;29;20024;-71
2022/05/20 06:17:56;;;;;;;13.20;4.43;;;;;;;;;;4936688;29;20032;-70
2022/05/20 06:20:23;;;;;;;22.60;5.65;;;;;;;;;;4936104;29;20071;-71
2022/05/20 06:22:50;;;;;;;17.60;4.53;;;;;;;;;;4930039;29;20032;-72
2022/05/20 06:25:16;;;;;;;23.15;4.97;;;;;;;;;;4936389;29;20115;-70
2022/05/20 06:27:43;;;;;;;16.25;3.92;;;;;;;;;;4936388;29;20393;-71
2022/05/20 06:30:10;;;;;;;21.85;5.22;;;;;;;;;;4919381;29;20032;-71
2022/05/20 06:32:37;;;;;;;21.63;4.82;;;;;;;;;;4935903;29;20031;-70
2022/05/20 06:40:35;;;;;;;18.45;4.60;;;;;;;;;;4935992;29;20042;-71
2022/05/20 06:43:01;;;;;;;14.52;4.65;;;;;;;;;;4935444;29;20062;-71
2022/05/20 06:45:30;;;;;;;19.73;4.82;;;;;;;;;;4934918;29;20027;-71
2022/05/20 06:47:56;;;;;;;18.45;4.60;;;;;;;;;;4935596;29;20024;-71
2022/05/20 06:50:22;;;;;;;17.48;5.07;;;;;;;;;;4918491;29;20334;-71
2022/05/20 06:52:48;;;;;;;24.10;5.35;;;;;;;;;;4918356;29;20028;-71
2022/05/20 06:55:14;;;;;;;22.23;4.93;;;;;;;;;;4934809;29;20031;-72
2022/05/20 06:57:40;;;;;;;19.63;4.70;;;;;;;;;;4935714;29;20028;-70
2022/05/20 07:00:08;;;;;;;17.30;5.13;;;;;;;;;;4935578;29;20397;-71
2022/05/20 07:02:34;;;;;;;23.30;5.10;;;;;;;;;;4935533;29;20074;-71
2022/05/20 07:05:03;;;;;;;24.20;5.75;;;;;;;;;;4935401;29;20131;-72
2022/05/20 07:07:29;;;;;;;25.15;5.07;;;;;;;;;;4935224;29;20426;-72
2022/05/20 07:09:55;;;;;;;23.88;5.20;;;;;;;;;;4934968;29;20032;-73
2022/05/20 07:12:21;;;;;;;24.73;6.25;;;;;;;;;;4933990;29;20036;-72
2022/05/20 07:14:47;;;;;;;24.13;6.47;;;;;;;;;;4917941;29;20028;-72
2022/05/20 07:17:17;;;;;;;19.13;5.03;;;;;;;;;;4934692;29;20437;-72
2022/05/20 07:19:43;;;;;;;20.20;5.05;;;;;;;;;;4934640;29;20545;-73
2022/05/20 07:22:09;;;;;;;21.75;5.38;;;;;;;;;;4934912;29;20056;-72
2022/05/20 07:24:37;;;;;;;19.15;4.60;;;;;;;;;;4935184;29;20076;-72
2022/05/20 07:27:03;;;;;;;26.95;4.80;;;;;;;;;;4934861;29;20027;-72
2022/05/20 07:29:29;;;;;;;24.50;5.90;;;;;;;;;;4934263;29;20071;-72
2022/05/20 07:31:55;;;;;;;19.70;5.45;;;;;;;;;;4935057;29;20047;-72
2022/05/20 07:34:21;;;;;;;26.73;6.28;;;;;;;;;;4934472;29;20124;-72
2022/05/20 07:36:47;;;;;;;21.50;5.88;;;;;;;;;;4916686;29;20055;-70
2022/05/20 07:39:13;;;;;;;22.00;6.63;;;;;;;;;;4934392;29;20058;-72
2022/05/20 07:41:39;;;;;;;28.83;8.27;;;;;;;;;;4934126;29;20123;-71
2022/05/20 07:44:06;;;;;;;23.77;6.80;;;;;;;;;;4934353;29;20090;-72
2022/05/20 07:46:32;;;;;;;20.65;6.55;;;;;;;;;;4925354;29;20032;-72
2022/05/20 07:48:58;;;;;;;21.67;7.38;;;;;;;;;;4915661;29;20111;-72
2022/05/20 07:51:25;;;;;;;25.38;6.53;;;;;;;;;;4915042;29;20028;-72
2022/05/20 07:53:56;;;;;;;17.58;6.60;;;;;;;;;;4915586;29;20032;-72
2022/05/20 07:56:27;;;;;;;18.33;5.78;;;;;;;;;;4914601;29;20115;-72
2022/05/20 07:58:58;;;;;;;25.13;6.55;;;;;;;;;;4914463;29;20520;-71
2022/05/20 08:01:26;;;;;;;28.38;8.10;;;;;;;;;;4913815;29;20020;-72
2022/05/20 08:06:39;;;;;;;20.48;7.88;;;;;;;;;;4915029;29;20183;-72
2022/05/20 08:09:06;;;;;;;24.05;8.57;;;;;;;;;;4915344;29;20504;-74
2022/05/20 08:11:32;;;;;;;15.88;6.20;;;;;;;;;;4915070;29;20052;-75
2022/05/20 08:13:59;;;;;;;20.63;7.53;;;;;;;;;;4915337;29;20083;-73
2022/05/20 08:16:25;;;;;;;13.90;5.35;;;;;;;;;;4915904;29;20024;-79
2022/05/20 08:18:52;;;;;;;11.70;3.95;;;;;;;;;;4915594;29;20052;-73
2022/05/20 08:21:18;;;;;;;8.52;2.90;;;;;;;;;;4923424;29;20043;-75
2022/05/20 08:23:45;;;;;;;7.20;2.80;;;;;;;;;;4934255;29;20028;-74
2022/05/20 08:26:16;;;;;;;11.65;4.50;;;;;;;;;;4934098;29;20034;-76
2022/05/20 08:28:43;;;;;;;10.63;2.17;;;;;;;;;;4934588;29;20031;-74
2022/05/20 08:31:10;;;;;;;7.90;1.40;;;;;;;;;;4917181;29;20035;-72
2022/05/20 08:33:36;;;;;;;9.82;1.90;;;;;;;;;;4934077;29;20094;-73
2022/05/20 08:36:03;;;;;;;7.25;1.88;;;;;;;;;;4933725;29;20035;-72
2022/05/20 08:38:30;;;;;;;8.35;1.75;;;;;;;;;;4933733;29;20032;-72
2022/05/20 08:40:57;;;;;;;5.55;1.33;;;;;;;;;;4933852;29;20472;-71
2022/05/20 08:43:26;;;;;;;6.70;1.15;;;;;;;;;;4934245;29;20050;-72
2022/05/20 08:45:52;;;;;;;5.63;1.30;;;;;;;;;;4934680;29;20070;-72
2022/05/20 08:48:18;;;;;;;2.00;1.00;;;;;;;;;;4934361;29;20020;-72
2022/05/20 08:50:47;;;;;;;1.80;1.10;;;;;;;;;;4934128;29;20035;-72
2022/05/20 08:53:33;;;;;;;5.85;1.15;;;;;;;;;;4933878;29;20102;-71
2022/05/20 08:56:01;;;;;;;3.78;0.90;;;;;;;;;;4934063;29;20030;-73
2022/05/20 08:58:27;;;;;;;5.35;1.13;;;;;;;;;;4935052;29;20547;-72
2022/05/20 09:00:53;;;;;;;4.05;1.83;;;;;;;;;;4935314;29;20032;-71
2022/05/20 09:03:22;;;;;;;5.03;1.20;;;;;;;;;;4935122;29;20034;-72
2022/05/20 09:05:48;;;;;;;3.63;1.05;;;;;;;;;;4933905;29;20136;-72
2022/05/20 09:08:21;;;;;;;9.48;3.40;;;;;;;;;;4934150;29;20055;-73
2022/05/20 09:10:51;;;;;;;4.07;1.20;;;;;;;;;;4932813;29;20032;-72
2022/05/20 09:16:15;;;;;;;4.78;1.23;;;;;;;;;;4934246;29;20039;-73
2022/05/20 09:18:42;;;;;;;5.72;1.35;;;;;;;;;;4934249;29;20031;-72
2022/05/20 09:21:15;;;;;;;5.55;1.75;;;;;;;;;;4934346;29;20044;-71
2022/05/20 09:23:50;;;;;;;5.18;1.10;;;;;;;;;;4934161;29;20030;-72
2022/05/20 09:26:20;;;;;;;5.55;1.65;;;;;;;;;;4934374;29;20412;-73
2022/05/20 09:28:48;;;;;;;8.98;1.30;;;;;;;;;;4934224;29;20044;-72
2022/05/20 09:31:16;;;;;;;6.88;1.25;;;;;;;;;;4934901;29;20031;-70
2022/05/20 09:33:54;;;;;;;3.33;1.10;;;;;;;;;;4934473;29;20055;-71
2022/05/20 09:36:33;;;;;;;4.80;1.20;;;;;;;;;;4934869;29;20148;-71
2022/05/20 09:39:15;;;;;;;7.35;1.48;;;;;;;;;;4934357;29;20545;-73
2022/05/20 09:41:55;;;;;;;4.25;1.05;;;;;;;;;;4935166;29;20083;-71
2022/05/20 09:44:23;;;;;;;6.32;1.85;;;;;;;;;;4934559;29;20036;-73
2022/05/20 09:46:54;;;;;;;5.72;1.25;;;;;;;;;;4934839;29;20047;-73
2022/05/20 09:49:42;;;;;;;3.95;1.35;;;;;;;;;;4935281;29;20105;-72
2022/05/20 09:52:16;;;;;;;7.05;1.27;;;;;;;;;;4935157;29;20051;-72
2022/05/20 09:54:45;;;;;;;3.90;1.70;;;;;;;;;;4917867;29;20043;-72
2022/05/20 09:57:20;;;;;;;2.92;1.05;;;;;;;;;;4934771;29;20047;-73
2022/05/20 09:59:52;;;;;;;5.35;1.40;;;;;;;;;;4934605;29;20024;-71
2022/05/20 10:02:37;;;;;;;7.32;1.40;;;;;;;;;;4933954;29;20098;-74
2022/05/20 10:05:22;;;;;;;3.33;0.80;;;;;;;;;;4934197;29;20091;-73
2022/05/20 10:07:55;;;;;;;2.65;0.88;;;;;;;;;;4917071;29;20028;-74
2022/05/20 10:10:40;;;;;;;4.15;1.00;;;;;;;;;;4933994;29;20059;-70
2022/05/20 10:13:09;;;;;;;2.40;0.82;;;;;;;;;;4934621;29;20044;-71
2022/05/20 10:15:45;;;;;;;4.70;1.50;;;;;;;;;;4934967;29;20028;-73
2022/05/20 10:18:20;;;;;;;4.97;1.40;;;;;;;;;;4934470;29;20036;-74
2022/05/20 10:20:58;;;;;;;5.40;1.13;;;;;;;;;;4935043;29;20043;-72
2022/05/20 10:23:33;;;;;;;5.75;1.35;;;;;;;;;;4937802;29;20393;-73
2022/05/20 10:26:25;;;;;;;5.50;1.50;;;;;;;;;;4938090;29;20039;-74
2022/05/20 10:34:39;;;;;;;6.28;1.60;;;;;;;;;;4936911;29;20453;-73
2022/05/20 10:37:08;;;;;;;4.88;1.35;;;;;;;;;;4936489;29;20033;-74
2022/05/20 10:39:53;;;;;;;4.72;1.20;;;;;;;;;;4919691;29;20027;-74
2022/05/20 10:42:37;;;;;;;5.00;1.40;;;;;;;;;;4937029;29;20023;-77
2022/05/20 10:50:33;;;;;;;;;;;;;;;;;;4937931;29;20009;-80
2022/05/20 10:53:05;;;;;;;4.45;1.40;;;;;;;;;;4935432;29;19915;-82
2022/05/20 10:55:31;;;;;;;3.50;1.00;;;;;;;;;;4922929;29;20024;-83
2022/05/20 10:58:08;;;;;;;5.70;1.55;;;;;;;;;;4926002;29;20031;-83
2022/05/20 11:00:40;;;;;;;4.53;1.30;;;;;;;;;;4925473;29;20036;-84
2022/05/20 11:03:13;;;;;;;4.50;2.42;;;;;;;;;;4921689;29;20080;-82
2022/05/20 11:05:44;;;;;;;5.72;1.80;;;;;;;;;;4917303;29;20496;-81
2022/05/20 11:08:29;;;;;;;11.27;3.20;;;;;;;;;;4917632;29;20028;-82
2022/05/20 11:11:34;;;;;;;2.25;1.00;;;;;;;;;;4917674;29;20047;-81
2022/05/20 11:14:01;;;;;;;2.70;1.23;;;;;;;;;;4877100;29;20121;-76
2022/05/20 11:16:27;;;;;;;5.25;1.50;;;;;;;;;;4876831;29;20044;-76
2022/05/20 11:19:02;;;;;;;5.40;1.20;;;;;;;;;;4900235;29;20094;-79
2022/05/20 11:21:47;;;;;;;4.85;1.35;;;;;;;;;;4935785;29;20055;-78
2022/05/20 11:24:25;;;;;;;3.53;1.48;;;;;;;;;;4935808;29;20563;-78
2022/05/20 11:26:51;;;;;;;8.45;1.13;;;;;;;;;;4934611;29;20178;-78
2022/05/20 11:29:18;;;;;;;2.92;1.13;;;;;;;;;;4935196;29;20032;-78
2022/05/20 11:32:02;;;;;;;6.50;1.50;;;;;;;;;;4935246;29;20159;-78
2022/05/20 11:34:32;;;;;;;6.65;1.50;;;;;;;;;;4934396;29;20078;-78
2022/05/20 11:37:08;;;;;;;6.38;2.40;;;;;;;;;;4934668;29;20062;-77
2022/05/20 11:39:44;;;;;;;5.68;1.63;;;;;;;;;;4934840;29;20055;-77
2022/05/20 11:42:12;;;;;;;4.43;1.30;;;;;;;;;;4936408;29;20493;-77
2022/05/20 11:44:52;;;;;;;4.93;1.42;;;;;;;;;;4935316;29;20027;-78
2022/05/20 11:47:19;;;;;;;4.80;1.60;;;;;;;;;;4936150;29;20532;-79
2022/05/20 11:49:59;;;;;;;4.28;1.58;;;;;;;;;;4936427;29;20035;-77
2022/05/20 11:52:43;;;;;;;5.07;1.60;;;;;;;;;;4937141;29;20043;-79
2022/05/20 11:55:12;;;;;;;3.53;1.65;;;;;;;;;;4937669;29;20105;-79
2022/05/20 11:57:42;;;;;;;5.50;1.40;;;;;;;;;;4936919;29;20043;-76
2022/05/20 12:00:11;;;;;;;4.63;1.40;;;;;;;;;;4937327;29;20410;-77
2022/05/20 12:02:42;;;;;;;5.10;1.90;;;;;;;;;;4919113;29;20027;-77
2022/05/20 12:05:12;;;;;;;5.78;1.52;;;;;;;;;;4936921;29;20019;-77
2022/05/20 12:07:39;;;;;;;5.10;1.88;;;;;;;;;;4936466;29;20031;-77
2022/05/20 12:10:17;;;;;;;9.95;2.10;;;;;;;;;;4937670;29;20027;-76
2022/05/20 12:13:08;;;;;;;5.35;1.70;;;;;;;;;;4936687;29;20505;-77
2022/05/20 12:15:40;;;;;;;5.97;1.83;;;;;;;;;;4936424;29;20149;-77
2022/05/20 12:24:11;;;;;;;5.85;1.63;;;;;;;;;;4935707;29;20055;-76
2022/05/20 12:24:23;;;;;;;8.20;1.80;;;;;;;;;;4917745;29;20054;-78
2022/05/20 12:26:51;;;;;;;7.25;1.75;;;;;;;;;;4887979;29;20505;-76
2022/05/20 12:29:35;;;;;;;4.50;1.63;;;;;;;;;;4917292;29;20028;-76
2022/05/20 12:32:21;;;;;;;9.85;3.60;;;;;;;;;;4916586;29;20693;-76
2022/05/20 12:34:58;;;;;;;6.05;1.60;;;;;;;;;;4910050;29;20051;-76
2022/05/20 12:37:48;;;;;;;5.22;1.98;;;;;;;;;;4933549;29;20027;-76
2022/05/20 12:40:20;;;;;;;6.25;1.90;;;;;;;;;;4933721;29;20063;-76
2022/05/20 12:42:49;;;;;;;5.53;1.48;;;;;;;;;;4935013;29;20078;-76
2022/05/20 12:45:16;;;;;;;6.55;1.90;;;;;;;;;;4934869;29;20036;-75
2022/05/20 12:47:42;;;;;;;3.78;1.50;;;;;;;;;;4935359;29;20500;-75
2022/05/20 12:50:20;;;;;;;5.57;1.60;;;;;;;;;;4934178;29;20024;-75
2022/05/20 12:52:48;;;;;;;4.57;1.20;;;;;;;;;;4933100;29;20050;-74
2022/05/20 12:55:20;;;;;;;3.25;0.90;;;;;;;;;;4934302;29;20024;-75
2022/05/20 12:57:50;;;;;;;3.38;0.73;;;;;;;;;;4933945;29;20031;-74
2022/05/20 13:00:17;;;;;;;4.50;0.93;;;;;;;;;;4933675;29;20028;-73
2022/05/20 13:02:45;;;;;;;3.17;0.80;;;;;;;;;;4933204;29;20062;-74
2022/05/20 13:05:31;;;;;;;2.75;1.00;;;;;;;;;;4933374;29;20039;-74
2022/05/20 13:07:58;;;;;;;2.78;0.77;;;;;;;;;;4933766;29;20125;-73
2022/05/20 13:10:24;;;;;;;3.08;1.00;;;;;;;;;;4932644;29;20110;-72
2022/05/20 13:12:52;;;;;;;5.85;1.02;;;;;;;;;;4933333;29;20038;-73
2022/05/20 13:15:19;;;;;;;4.55;1.10;;;;;;;;;;4933910;29;20031;-73
2022/05/20 13:18:08;;;;;;;2.28;0.80;;;;;;;;;;4933816;29;20043;-73
2022/05/20 13:20:36;;;;;;;4.90;0.85;;;;;;;;;;4934340;29;20047;-73
2022/05/20 13:23:03;;;;;;;4.10;1.10;;;;;;;;;;4934900;29;20446;-72
2022/05/20 13:25:30;;;;;;;4.65;0.80;;;;;;;;;;4932637;29;20047;-72
2022/05/20 13:27:56;;;;;;;4.78;1.00;;;;;;;;;;4914374;29;20055;-72
2022/05/20 13:30:30;;;;;;;2.45;0.70;;;;;;;;;;4914779;29;20032;-72
2022/05/20 13:33:07;;;;;;;4.15;1.13;;;;;;;;;;4914289;29;20094;-71
2022/05/20 13:36:02;;;;;;;1.98;0.80;;;;;;;;;;4914065;29;20032;-71
2022/05/20 13:38:29;;;;;;;2.30;0.82;;;;;;;;;;4905515;29;20052;-71
2022/05/20 13:40:56;;;;;;;3.42;0.95;;;;;;;;;;4914180;29;20064;-71
2022/05/20 13:43:27;;;;;;;3.40;1.10;;;;;;;;;;4914879;29;20024;-71
2022/05/20 13:51:31;;;;;;;3.78;1.40;;;;;;;;;;4933450;29;20152;-71
2022/05/20 13:54:00;;;;;;;3.55;1.20;;;;;;;;;;4933462;29;20504;-71
2022/05/20 13:56:30;;;;;;;3.13;1.45;;;;;;;;;;4935689;29;20394;-71
2022/05/20 13:58:56;;;;;;;4.90;1.25;;;;;;;;;;4936826;29;20597;-69
2022/05/20 14:01:22;;;;;;;3.97;1.13;;;;;;;;;;4921230;29;20024;-70
2022/05/20 14:03:50;;;;;;;4.85;1.00;;;;;;;;;;4917208;29;20047;-70
2022/05/20 14:06:20;;;;;;;2.88;0.95;;;;;;;;;;4917413;29;20032;-70
2022/05/20 14:08:54;;;;;;;3.72;1.00;;;;;;;;;;4916616;29;20052;-70
2022/05/20 14:11:20;;;;;;;;;;;;;;;;;;4918103;29;20532;-71
2022/05/20 14:13:46;;;;;;;2.80;0.95;;;;;;;;;;4917426;29;19915;-71
2022/05/20 14:16:22;;;;;;;5.75;1.45;;;;;;;;;;4917617;29;20036;-69
2022/05/20 14:18:56;;;;;;;4.22;1.27;;;;;;;;;;4929028;29;20031;-70
2022/05/20 14:21:30;;;;;;;3.35;1.17;;;;;;;;;;4936331;29;20098;-70
2022/05/20 14:24:00;;;;;;;5.03;1.60;;;;;;;;;;4936791;29;20122;-70
2022/05/20 14:26:33;;;;;;;5.55;1.35;;;;;;;;;;4935001;29;20110;-70
2022/05/20 14:29:00;;;;;;;5.40;2.28;;;;;;;;;;4936242;29;20051;-71
2022/05/20 14:31:38;;;;;;;6.18;1.40;;;;;;;;;;4933379;29;20027;-70
2022/05/20 14:34:10;;;;;;;2.28;1.10;;;;;;;;;;4929669;29;20400;-70
2022/05/20 14:36:37;;;;;;;2.50;1.00;;;;;;;;;;4916700;29;20792;-69
2022/05/20 14:39:08;;;;;;;4.68;1.27;;;;;;;;;;4928078;29;20028;-70
2022/05/20 14:41:35;;;;;;;5.30;1.30;;;;;;;;;;4932351;29;20591;-70
2022/05/20 14:44:05;;;;;;;3.40;1.13;;;;;;;;;;4935442;29;20034;-70
2022/05/20 14:49:30;;;;;;;3.55;1.05;;;;;;;;;;4933044;29;20058;-70
2022/05/20 14:51:57;;;;;;;4.63;1.00;;;;;;;;;;4926035;29;20028;-70
2022/05/20 14:54:28;;;;;;;3.00;1.00;;;;;;;;;;4935573;29;20485;-71
2022/05/20 14:56:55;;;;;;;6.03;1.02;;;;;;;;;;4932126;29;20393;-71
2022/05/20 14:59:32;;;;;;;4.25;1.00;;;;;;;;;;4932434;29;20043;-72
2022/05/20 15:01:58;;;;;;;3.35;1.23;;;;;;;;;;4929459;29;20503;-69
2022/05/20 15:04:24;;;;;;;3.40;0.80;;;;;;;;;;4932533;29;20473;-70
2022/05/20 15:06:50;;;;;;;3.75;0.90;;;;;;;;;;4915719;29;20031;-70
2022/05/20 15:09:24;;;;;;;3.45;1.00;;;;;;;;;;4931168;29;20508;-69
2022/05/20 15:11:50;;;;;;;3.13;0.95;;;;;;;;;;4935118;29;20036;-70
2022/05/20 15:14:17;;;;;;;3.30;0.80;;;;;;;;;;4932653;29;20023;-69
2022/05/20 15:16:43;;;;;;;2.88;0.80;;;;;;;;;;4924251;29;20423;-71
2022/05/20 15:19:11;;;;;;;3.40;0.93;;;;;;;;;;4929764;29;20136;-72
2022/05/20 15:21:37;;;;;;;2.28;0.77;;;;;;;;;;4926250;29;20032;-70
2022/05/20 15:24:06;;;;;;;4.75;1.10;;;;;;;;;;4927990;29;20059;-69
2022/05/20 15:26:33;;;;;;;2.95;0.85;;;;;;;;;;4912864;29;20500;-69
2022/05/20 15:28:59;;;;;;;2.10;0.70;;;;;;;;;;4932919;29;20023;-71
2022/05/20 15:37:24;;;;;;;7.93;1.30;;;;;;;;;;4932180;29;20099;-70
2022/05/20 15:39:53;;;;;;;5.55;0.88;;;;;;;;;;4917821;29;20492;-70
2022/05/20 15:42:20;;;;;;;8.88;1.33;;;;;;;;;;4931406;29;20043;-70
2022/05/20 15:44:47;;;;;;;3.22;1.02;;;;;;;;;;4932623;29;20027;-69